createdAt,value
2016-09-08T00:00:20.466Z,21.78
2016-09-08T00:00:42.277Z,21.81
2016-09-08T00:01:05.109Z,21.63
2016-09-08T00:01:26.852Z,21.48
2016-09-08T00:01:48.587Z,21.40
2016-09-08T00:02:11.351Z,21.43
2016-09-08T00:02:33.070Z,21.47
2016-09-08T00:02:54.799Z,21.58
2016-09-08T00:03:22.349Z,21.61
2016-09-08T00:03:44.094Z,21.63
2016-09-08T00:04:05.835Z,21.73
2016-09-08T00:04:27.576Z,21.83
2016-09-08T00:04:49.307Z,21.75
2016-09-08T00:05:11.032Z,21.45
2016-09-08T00:05:32.766Z,21.32
2016-09-08T00:05:54.504Z,21.18
2016-09-08T00:06:17.339Z,21.21
2016-09-08T00:06:46.642Z,21.43
2016-09-08T00:07:09.432Z,21.41
2016-09-08T00:07:31.249Z,21.52
2016-09-08T00:07:52.996Z,21.64
2016-09-08T00:08:14.754Z,21.72
2016-09-08T00:08:36.504Z,21.74
2016-09-08T00:08:58.248Z,21.56
2016-09-08T00:09:20.038Z,21.45
2016-09-08T00:09:41.851Z,21.51
2016-09-08T00:10:03.602Z,21.54
2016-09-08T00:10:27.864Z,21.62
2016-09-08T00:10:54.370Z,21.67
2016-09-08T00:11:16.229Z,21.70
2016-09-08T00:12:07.247Z,21.55
2016-09-08T00:12:29.014Z,21.33
2016-09-08T00:12:53.412Z,21.19
2016-09-08T00:13:15.163Z,21.23
2016-09-08T00:13:37.896Z,21.27
2016-09-08T00:13:59.628Z,21.28
2016-09-08T00:14:21.372Z,21.28
2016-09-08T00:14:44.149Z,21.31
2016-09-08T00:15:05.870Z,21.37
2016-09-08T00:15:27.595Z,21.49
2016-09-08T00:15:49.323Z,21.41
2016-09-08T00:16:11.079Z,21.39
2016-09-08T00:16:32.818Z,21.32
2016-09-08T00:16:54.558Z,21.32
2016-09-08T00:17:16.277Z,21.26
2016-09-08T00:17:38.024Z,21.36
2016-09-08T00:17:59.787Z,21.40
2016-09-08T00:18:21.515Z,21.47
2016-09-08T00:18:48.033Z,21.46
2016-09-08T00:19:09.775Z,21.27
2016-09-08T00:19:32.533Z,21.19
2016-09-08T00:19:54.267Z,21.14
2016-09-08T00:20:15.995Z,21.06
2016-09-08T00:20:37.729Z,20.97
2016-09-08T00:20:59.477Z,20.90
2016-09-08T00:21:24.043Z,20.95
2016-09-08T00:21:45.813Z,21.01
2016-09-08T00:22:07.548Z,20.89
2016-09-08T00:22:29.307Z,20.87
2016-09-08T00:23:23.314Z,20.96
2016-09-08T00:23:47.567Z,21.05
2016-09-08T00:24:09.480Z,21.14
2016-09-08T00:24:31.236Z,21.33
2016-09-08T00:24:52.987Z,21.31
2016-09-08T00:25:14.721Z,21.16
2016-09-08T00:25:36.453Z,21.15
2016-09-08T00:25:58.210Z,21.13
2016-09-08T00:26:19.953Z,21.06
2016-09-08T00:26:41.690Z,21.26
2016-09-08T00:27:03.439Z,21.32
2016-09-08T00:27:25.173Z,21.09
2016-09-08T00:28:14.395Z,20.96
2016-09-08T00:29:02.661Z,20.95
2016-09-08T00:29:24.399Z,20.98
2016-09-08T00:29:46.178Z,21.04
2016-09-08T00:30:07.931Z,21.09
2016-09-08T00:30:34.433Z,21.01
2016-09-08T00:30:56.161Z,20.98
2016-09-08T00:31:17.896Z,20.98
2016-09-08T00:31:44.396Z,20.90
2016-09-08T00:32:06.158Z,20.96
2016-09-08T00:32:54.396Z,21.29
2016-09-08T00:33:16.127Z,21.35
2016-09-08T00:33:39.861Z,21.41
2016-09-08T00:34:01.582Z,21.29
2016-09-08T00:34:23.313Z,21.19
2016-09-08T00:34:45.054Z,21.13
2016-09-08T00:35:11.541Z,21.01
2016-09-08T00:35:33.317Z,21.12
2016-09-08T00:35:55.051Z,21.14
2016-09-08T00:36:16.785Z,21.07
2016-09-08T00:36:38.527Z,21.16
2016-09-08T00:37:04.847Z,21.33
2016-09-08T00:37:26.584Z,21.37
2016-09-08T00:37:49.390Z,21.45
2016-09-08T00:38:11.262Z,21.34
2016-09-08T00:38:37.758Z,21.46
2016-09-08T00:38:59.499Z,21.39
2016-09-08T00:39:21.330Z,21.34
2016-09-08T00:39:43.059Z,21.35
2016-09-08T00:40:05.790Z,21.36
2016-09-08T00:40:28.517Z,21.26
2016-09-08T00:40:50.258Z,21.19
2016-09-08T00:41:12.057Z,21.15
2016-09-08T00:41:33.839Z,21.07
2016-09-08T00:41:55.626Z,21.12
2016-09-08T00:42:17.474Z,21.18
2016-09-08T00:42:39.205Z,21.27
2016-09-08T00:43:28.445Z,21.44
2016-09-08T00:43:50.219Z,21.46
2016-09-08T00:44:16.831Z,21.36
2016-09-08T00:44:38.559Z,21.34
2016-09-08T00:45:01.285Z,21.36
2016-09-08T00:45:23.068Z,21.40
2016-09-08T00:45:44.798Z,21.43
2016-09-08T00:46:06.533Z,21.46
2016-09-08T00:46:28.258Z,21.55
2016-09-08T00:46:49.999Z,21.59
2016-09-08T00:47:11.737Z,21.52
2016-09-08T00:47:33.537Z,21.50
2016-09-08T00:47:55.273Z,21.51
2016-09-08T00:48:16.993Z,21.56
2016-09-08T00:48:38.722Z,21.45
2016-09-08T00:49:00.466Z,21.30
2016-09-08T00:49:22.280Z,21.17
2016-09-08T00:49:44.027Z,21.07
2016-09-08T00:50:05.793Z,21.02
2016-09-08T00:50:27.542Z,20.97
2016-09-08T00:50:49.272Z,20.95
2016-09-08T00:51:11.009Z,21.00
2016-09-08T00:51:32.744Z,21.07
2016-09-08T00:51:54.479Z,21.08
2016-09-08T00:52:16.214Z,21.06
2016-09-08T00:52:37.977Z,21.07
2016-09-08T00:53:26.216Z,21.28
2016-09-08T00:53:56.328Z,21.36
2016-09-08T00:54:27.596Z,21.20
2016-09-08T00:55:15.830Z,21.14
2016-09-08T00:55:37.561Z,21.11
2016-09-08T00:55:59.337Z,21.15
2016-09-08T00:56:47.592Z,21.16
2016-09-08T00:57:09.333Z,21.24
2016-09-08T00:57:31.077Z,21.25
2016-09-08T00:58:02.342Z,21.29
2016-09-08T00:58:24.082Z,21.25
2016-09-08T00:58:48.453Z,21.12
2016-09-08T00:59:10.203Z,21.09
2016-09-08T01:00:07.974Z,21.08
2016-09-08T01:00:30.700Z,20.98
2016-09-08T01:00:52.427Z,20.97
2016-09-08T01:01:14.161Z,21.02
2016-09-08T01:01:36.898Z,21.04
2016-09-08T01:01:58.626Z,21.06
2016-09-08T01:02:20.361Z,21.15
2016-09-08T01:02:42.085Z,21.26
2016-09-08T01:03:03.845Z,21.17
2016-09-08T01:03:25.609Z,21.06
2016-09-08T01:03:47.343Z,21.09
2016-09-08T01:04:09.103Z,21.04
2016-09-08T01:04:30.841Z,20.99
2016-09-08T01:04:52.594Z,21.05
2016-09-08T01:05:14.332Z,21.12
2016-09-08T01:05:36.076Z,21.08
2016-09-08T01:05:57.839Z,20.98
2016-09-08T01:06:19.576Z,20.94
2016-09-08T01:06:41.310Z,20.97
2016-09-08T01:07:03.052Z,21.02
2016-09-08T01:07:24.786Z,21.11
2016-09-08T01:07:51.288Z,21.07
2016-09-08T01:08:13.007Z,21.07
2016-09-08T01:08:34.744Z,21.13
2016-09-08T01:08:56.510Z,21.13
2016-09-08T01:09:18.242Z,21.14
2016-09-08T01:09:44.738Z,21.14
2016-09-08T01:10:06.473Z,21.09
2016-09-08T01:10:28.210Z,21.03
2016-09-08T01:10:49.931Z,21.03
2016-09-08T01:11:11.669Z,21.03
2016-09-08T01:11:33.407Z,20.98
2016-09-08T01:11:55.132Z,20.94
2016-09-08T01:12:21.637Z,20.96
2016-09-08T01:12:43.362Z,20.97
2016-09-08T01:13:05.090Z,21.03
2016-09-08T01:13:26.856Z,21.04
2016-09-08T01:13:50.601Z,21.07
2016-09-08T01:14:12.354Z,21.13
2016-09-08T01:14:34.088Z,21.12
2016-09-08T01:14:58.806Z,21.05
2016-09-08T01:15:25.305Z,21.14
2016-09-08T01:15:51.804Z,21.09
2016-09-08T01:16:13.528Z,21.09
2016-09-08T01:16:40.035Z,21.13
2016-09-08T01:17:01.751Z,21.14
2016-09-08T01:17:23.500Z,21.16
2016-09-08T01:17:46.264Z,21.13
2016-09-08T01:18:11.435Z,21.14
2016-09-08T01:18:33.173Z,21.13
2016-09-08T01:18:54.952Z,21.17
2016-09-08T01:19:16.694Z,21.21
2016-09-08T01:19:38.421Z,21.39
2016-09-08T01:20:00.169Z,21.39
2016-09-08T01:20:21.934Z,21.49
2016-09-08T01:20:43.710Z,21.48
2016-09-08T01:21:05.494Z,21.44
2016-09-08T01:21:27.225Z,21.43
2016-09-08T01:21:49.955Z,21.49
2016-09-08T01:22:11.691Z,21.48
2016-09-08T01:22:33.426Z,21.40
2016-09-08T01:22:55.161Z,21.40
2016-09-08T01:23:16.902Z,21.45
2016-09-08T01:23:43.599Z,21.38
2016-09-08T01:24:05.333Z,21.25
2016-09-08T01:24:27.090Z,21.08
2016-09-08T01:24:48.819Z,21.05
2016-09-08T01:25:10.563Z,21.08
2016-09-08T01:25:32.335Z,21.24
2016-09-08T01:25:54.066Z,21.20
2016-09-08T01:26:15.810Z,21.09
2016-09-08T01:26:38.563Z,21.02
2016-09-08T01:27:00.303Z,20.93
2016-09-08T01:27:22.050Z,20.87
2016-09-08T01:27:43.777Z,20.80
2016-09-08T01:28:05.509Z,20.75
2016-09-08T01:28:27.252Z,20.79
2016-09-08T01:29:15.548Z,21.12
2016-09-08T01:29:37.301Z,21.08
2016-09-08T01:29:59.048Z,21.01
2016-09-08T01:30:20.779Z,21.09
2016-09-08T01:30:47.430Z,21.26
2016-09-08T01:31:09.219Z,21.39
2016-09-08T01:31:31.013Z,21.38
2016-09-08T01:31:52.748Z,21.35
2016-09-08T01:32:14.483Z,21.22
2016-09-08T01:32:36.227Z,21.25
2016-09-08T01:32:57.977Z,21.33
2016-09-08T01:33:19.701Z,21.46
2016-09-08T01:33:46.213Z,21.50
2016-09-08T01:34:07.948Z,21.48
2016-09-08T01:35:00.950Z,21.60
2016-09-08T01:35:22.706Z,21.66
2016-09-08T01:35:48.172Z,21.69
2016-09-08T01:36:10.005Z,21.65
2016-09-08T01:36:36.470Z,21.63
2016-09-08T01:36:58.197Z,21.66
2016-09-08T01:37:19.935Z,21.72
2016-09-08T01:37:44.364Z,21.77
2016-09-08T01:38:06.150Z,21.73
2016-09-08T01:38:27.874Z,21.73
2016-09-08T01:39:01.974Z,21.63
2016-09-08T01:39:33.250Z,21.61
2016-09-08T01:39:55.001Z,21.63
2016-09-08T01:40:17.730Z,21.64
2016-09-08T01:40:39.468Z,21.67
2016-09-08T01:41:01.222Z,21.70
2016-09-08T01:41:22.968Z,21.75
2016-09-08T01:41:44.697Z,21.81
2016-09-08T01:42:06.454Z,21.84
2016-09-08T01:42:28.201Z,21.94
2016-09-08T01:42:59.483Z,21.88
2016-09-08T01:43:21.218Z,21.88
2016-09-08T01:43:42.949Z,21.81
2016-09-08T01:44:07.333Z,21.73
2016-09-08T01:44:29.068Z,21.67
2016-09-08T01:44:50.799Z,21.72
2016-09-08T01:45:13.541Z,21.74
2016-09-08T01:45:36.271Z,21.75
2016-09-08T01:45:58.006Z,21.78
2016-09-08T01:46:19.756Z,21.81
2016-09-08T01:46:46.252Z,21.80
2016-09-08T01:47:07.989Z,21.88
2016-09-08T01:47:29.708Z,21.93
2016-09-08T01:47:51.455Z,22.00
2016-09-08T01:48:19.980Z,21.94
2016-09-08T01:48:41.701Z,21.93
2016-09-08T01:49:03.430Z,22.00
2016-09-08T01:49:25.154Z,22.01
2016-09-08T01:49:47.081Z,21.97
2016-09-08T01:50:09.078Z,21.91
2016-09-08T01:50:30.802Z,21.89
2016-09-08T01:50:52.547Z,21.88
2016-09-08T01:51:14.284Z,21.90
2016-09-08T01:51:40.790Z,21.96
2016-09-08T01:52:02.537Z,21.99
2016-09-08T01:52:29.037Z,22.03
2016-09-08T01:52:51.890Z,21.99
2016-09-08T01:53:18.383Z,21.91
2016-09-08T01:53:40.112Z,21.85
2016-09-08T01:54:02.870Z,21.88
2016-09-08T01:54:24.604Z,21.92
2016-09-08T01:54:47.330Z,21.92
2016-09-08T01:55:09.078Z,21.82
2016-09-08T01:55:30.805Z,21.79
2016-09-08T01:55:52.540Z,21.82
2016-09-08T01:56:40.885Z,21.59
2016-09-08T01:57:10.313Z,21.49
2016-09-08T01:57:33.055Z,21.41
2016-09-08T01:57:54.857Z,21.52
2016-09-08T01:58:17.590Z,21.67
2016-09-08T01:58:39.321Z,21.70
2016-09-08T01:59:01.058Z,21.77
2016-09-08T01:59:22.786Z,21.75
2016-09-08T01:59:44.588Z,21.66
2016-09-08T02:00:06.319Z,21.66
2016-09-08T02:00:28.073Z,21.74
2016-09-08T02:00:50.886Z,21.82
2016-09-08T02:01:12.665Z,21.88
2016-09-08T02:02:05.721Z,21.76
2016-09-08T02:02:27.467Z,21.62
2016-09-08T02:02:53.977Z,21.62
2016-09-08T02:03:15.733Z,21.63
2016-09-08T02:03:37.465Z,21.58
2016-09-08T02:04:00.191Z,21.57
2016-09-08T02:04:21.925Z,21.68
2016-09-08T02:04:43.657Z,21.73
2016-09-08T02:05:05.452Z,21.73
2016-09-08T02:05:27.180Z,21.69
2016-09-08T02:05:48.895Z,21.72
2016-09-08T02:06:37.116Z,21.55
2016-09-08T02:06:58.847Z,21.49
2016-09-08T02:07:20.693Z,21.45
2016-09-08T02:07:42.425Z,21.42
2016-09-08T02:08:04.156Z,21.45
2016-09-08T02:08:25.884Z,21.45
2016-09-08T02:08:47.619Z,21.44
2016-09-08T02:09:09.353Z,21.40
2016-09-08T02:09:35.852Z,21.23
2016-09-08T02:09:57.580Z,21.16
2016-09-08T02:10:19.315Z,21.16
2016-09-08T02:10:41.084Z,21.12
2016-09-08T02:11:02.802Z,21.09
2016-09-08T02:11:24.540Z,21.08
2016-09-08T02:11:46.271Z,21.19
2016-09-08T02:12:08.002Z,21.19
2016-09-08T02:12:29.728Z,21.11
2016-09-08T02:12:51.459Z,21.04
2016-09-08T02:13:13.193Z,21.04
2016-09-08T02:13:34.901Z,21.08
2016-09-08T02:13:56.652Z,21.19
2016-09-08T02:14:18.371Z,21.21
2016-09-08T02:14:40.095Z,21.16
2016-09-08T02:15:07.587Z,21.08
2016-09-08T02:15:29.334Z,21.13
2016-09-08T02:15:51.052Z,21.15
2016-09-08T02:16:12.862Z,21.25
2016-09-08T02:16:34.620Z,21.22
2016-09-08T02:16:57.343Z,21.27
2016-09-08T02:17:19.119Z,21.37
2016-09-08T02:17:40.850Z,21.21
2016-09-08T02:18:02.594Z,20.91
2016-09-08T02:18:24.323Z,20.67
2016-09-08T02:18:47.046Z,20.59
2016-09-08T02:19:08.822Z,20.48
2016-09-08T02:19:30.568Z,20.44
2016-09-08T02:19:52.492Z,20.53
2016-09-08T02:20:19.000Z,20.62
2016-09-08T02:20:45.500Z,20.75
2016-09-08T02:21:34.709Z,21.11
2016-09-08T02:21:56.434Z,21.23
2016-09-08T02:22:18.209Z,21.20
2016-09-08T02:22:39.932Z,21.05
2016-09-08T02:23:01.680Z,20.93
2016-09-08T02:23:23.486Z,20.84
2016-09-08T02:23:45.247Z,20.96
2016-09-08T02:24:06.975Z,21.07
2016-09-08T02:24:28.707Z,21.20
2016-09-08T02:24:50.524Z,21.09
2016-09-08T02:25:12.258Z,21.03
2016-09-08T02:25:34.030Z,20.86
2016-09-08T02:25:55.752Z,20.77
2016-09-08T02:26:22.246Z,20.78
2016-09-08T02:27:10.488Z,20.94
2016-09-08T02:27:32.230Z,21.01
2016-09-08T02:27:53.992Z,21.19
2016-09-08T02:28:15.721Z,21.24
2016-09-08T02:28:38.454Z,21.26
2016-09-08T02:29:00.181Z,21.31
2016-09-08T02:29:21.925Z,21.17
2016-09-08T02:29:43.654Z,20.99
2016-09-08T02:30:05.385Z,20.92
2016-09-08T02:30:27.148Z,20.86
2016-09-08T02:30:48.897Z,20.97
2016-09-08T02:31:10.625Z,21.07
2016-09-08T02:31:32.347Z,21.12
2016-09-08T02:31:54.088Z,20.96
2016-09-08T02:32:15.836Z,20.74
2016-09-08T02:32:37.583Z,20.62
2016-09-08T02:32:59.320Z,20.68
2016-09-08T02:33:21.042Z,20.75
2016-09-08T02:33:42.774Z,20.73
2016-09-08T02:34:04.502Z,20.69
2016-09-08T02:34:26.255Z,20.58
2016-09-08T02:34:48.014Z,20.67
2016-09-08T02:35:09.736Z,20.69
2016-09-08T02:35:31.513Z,20.77
2016-09-08T02:35:54.425Z,20.86
2016-09-08T02:36:16.146Z,20.81
2016-09-08T02:36:37.884Z,20.73
2016-09-08T02:36:59.624Z,20.78
2016-09-08T02:37:21.407Z,20.92
2016-09-08T02:37:43.129Z,20.82
2016-09-08T02:38:09.631Z,20.81
2016-09-08T02:38:31.358Z,20.82
2016-09-08T02:38:53.080Z,20.84
2016-09-08T02:39:14.816Z,20.83
2016-09-08T02:39:36.597Z,21.01
2016-09-08T02:39:58.338Z,21.13
2016-09-08T02:40:46.569Z,21.15
2016-09-08T02:41:08.300Z,21.17
2016-09-08T02:41:30.025Z,21.11
2016-09-08T02:41:51.788Z,20.94
2016-09-08T02:42:13.512Z,20.85
2016-09-08T02:42:40.012Z,20.79
2016-09-08T02:43:01.759Z,20.79
2016-09-08T02:43:23.500Z,20.76
2016-09-08T02:43:46.245Z,20.91
2016-09-08T02:44:07.993Z,20.87
2016-09-08T02:44:30.722Z,20.92
2016-09-08T02:44:52.469Z,20.94
2016-09-08T02:45:14.200Z,21.04
2016-09-08T02:45:35.925Z,21.07
2016-09-08T02:45:57.669Z,21.11
2016-09-08T02:46:19.407Z,21.20
2016-09-08T02:46:42.127Z,21.19
2016-09-08T02:47:03.846Z,21.19
2016-09-08T02:47:25.698Z,21.16
2016-09-08T02:47:47.452Z,21.11
2016-09-08T02:48:09.196Z,21.12
2016-09-08T02:48:31.935Z,20.92
2016-09-08T02:48:53.691Z,20.67
2016-09-08T02:49:15.445Z,20.49
2016-09-08T02:49:37.180Z,20.57
2016-09-08T02:49:58.911Z,20.65
2016-09-08T02:50:20.703Z,20.71
2016-09-08T02:50:42.444Z,20.86
2016-09-08T02:51:04.165Z,20.96
2016-09-08T02:51:26.002Z,21.00
2016-09-08T02:51:47.747Z,21.11
2016-09-08T02:52:09.480Z,21.20
2016-09-08T02:52:31.219Z,21.15
2016-09-08T02:52:52.991Z,21.17
2016-09-08T02:53:14.751Z,21.07
2016-09-08T02:53:36.482Z,21.02
2016-09-08T02:53:58.209Z,21.06
2016-09-08T02:54:20.969Z,21.06
2016-09-08T02:54:42.851Z,21.09
2016-09-08T02:55:04.576Z,21.12
2016-09-08T02:55:26.309Z,21.11
2016-09-08T02:55:48.043Z,21.13
2016-09-08T02:56:09.778Z,21.12
2016-09-08T02:56:31.516Z,21.13
2016-09-08T02:56:53.244Z,21.08
2016-09-08T02:57:15.969Z,20.90
2016-09-08T02:57:37.704Z,20.74
2016-09-08T02:57:59.439Z,20.64
2016-09-08T02:58:21.177Z,20.73
2016-09-08T02:58:43.935Z,20.72
2016-09-08T02:59:05.737Z,20.77
2016-09-08T02:59:27.471Z,20.64
2016-09-08T02:59:49.288Z,20.55
2016-09-08T03:00:11.007Z,20.53
2016-09-08T03:00:32.796Z,20.44
2016-09-08T03:00:55.573Z,20.37
2016-09-08T03:01:17.314Z,20.27
2016-09-08T03:01:39.035Z,20.19
2016-09-08T03:02:00.757Z,20.25
2016-09-08T03:02:22.620Z,20.30
2016-09-08T03:02:45.356Z,20.26
2016-09-08T03:03:07.078Z,20.24
2016-09-08T03:03:28.824Z,20.27
2016-09-08T03:03:50.588Z,20.20
2016-09-08T03:04:12.421Z,20.16
2016-09-08T03:04:35.234Z,20.17
2016-09-08T03:04:57.989Z,20.21
2016-09-08T03:05:56.587Z,20.52
2016-09-08T03:06:44.834Z,20.58
2016-09-08T03:07:08.565Z,20.39
2016-09-08T03:07:33.992Z,20.38
2016-09-08T03:07:55.731Z,20.39
2016-09-08T03:08:17.465Z,20.24
2016-09-08T03:08:39.199Z,20.12
2016-09-08T03:09:00.917Z,20.11
2016-09-08T03:09:22.658Z,20.16
2016-09-08T03:09:44.396Z,20.09
2016-09-08T03:10:06.140Z,20.12
2016-09-08T03:10:27.934Z,20.04
2016-09-08T03:10:49.691Z,20.08
2016-09-08T03:11:11.439Z,20.31
2016-09-08T03:11:33.180Z,20.41
2016-09-08T03:11:54.930Z,20.30
2016-09-08T03:12:16.876Z,20.06
2016-09-08T03:12:38.603Z,19.89
2016-09-08T03:13:00.335Z,20.02
2016-09-08T03:13:22.082Z,20.03
2016-09-08T03:13:43.810Z,20.00
2016-09-08T03:14:05.651Z,20.06
2016-09-08T03:14:27.410Z,20.15
2016-09-08T03:14:49.150Z,20.15
2016-09-08T03:15:10.882Z,20.00
2016-09-08T03:15:32.606Z,20.00
2016-09-08T03:15:54.341Z,19.94
2016-09-08T03:16:16.120Z,19.99
2016-09-08T03:16:37.852Z,19.98
2016-09-08T03:16:59.608Z,20.16
2016-09-08T03:17:21.337Z,20.36
2016-09-08T03:17:43.078Z,20.32
2016-09-08T03:18:04.830Z,20.28
2016-09-08T03:18:26.565Z,20.25
2016-09-08T03:18:48.293Z,20.21
2016-09-08T03:19:14.796Z,20.12
2016-09-08T03:19:36.530Z,20.14
2016-09-08T03:19:58.264Z,20.21
2016-09-08T03:20:20.219Z,20.29
2016-09-08T03:20:41.980Z,20.39
2016-09-08T03:21:03.705Z,20.26
2016-09-08T03:21:25.442Z,20.19
2016-09-08T03:21:47.218Z,20.10
2016-09-08T03:22:08.942Z,19.99
2016-09-08T03:22:30.664Z,19.81
2016-09-08T03:22:52.403Z,19.67
2016-09-08T03:23:14.210Z,19.60
2016-09-08T03:23:35.924Z,19.66
2016-09-08T03:23:57.700Z,19.75
2016-09-08T03:24:19.458Z,19.81
2016-09-08T03:24:41.200Z,19.85
2016-09-08T03:25:02.939Z,19.94
2016-09-08T03:25:24.689Z,19.76
2016-09-08T03:25:51.195Z,19.64
2016-09-08T03:26:12.927Z,19.65
2016-09-08T03:26:34.681Z,19.69
2016-09-08T03:26:56.479Z,19.62
2016-09-08T03:27:18.206Z,19.70
2016-09-08T03:27:39.937Z,19.76
2016-09-08T03:28:01.720Z,19.82
2016-09-08T03:28:23.493Z,19.94
2016-09-08T03:28:45.228Z,19.87
2016-09-08T03:29:06.956Z,19.80
2016-09-08T03:29:28.687Z,19.63
2016-09-08T03:29:50.418Z,19.61
2016-09-08T03:30:12.233Z,19.63
2016-09-08T03:30:33.947Z,19.68
2016-09-08T03:30:55.673Z,19.62
2016-09-08T03:31:18.401Z,19.66
2016-09-08T03:31:40.162Z,19.61
2016-09-08T03:32:01.893Z,19.55
2016-09-08T03:32:23.625Z,19.57
2016-09-08T03:32:45.348Z,19.59
2016-09-08T03:33:07.076Z,19.59
2016-09-08T03:33:29.806Z,19.66
2016-09-08T03:33:51.551Z,19.68
2016-09-08T03:34:13.289Z,19.59
2016-09-08T03:34:35.006Z,19.57
2016-09-08T03:34:56.750Z,19.56
2016-09-08T03:35:19.486Z,19.70
2016-09-08T03:35:41.263Z,19.83
2016-09-08T03:36:03.004Z,19.96
2016-09-08T03:36:24.738Z,20.07
2016-09-08T03:36:46.469Z,20.04
2016-09-08T03:37:08.199Z,19.95
2016-09-08T03:37:29.938Z,19.85
2016-09-08T03:37:51.801Z,19.79
2016-09-08T03:38:13.636Z,19.74
2016-09-08T03:38:35.381Z,19.57
2016-09-08T03:38:57.106Z,19.51
2016-09-08T03:39:18.908Z,19.56
2016-09-08T03:39:40.703Z,19.73
2016-09-08T03:40:02.475Z,19.55
2016-09-08T03:40:24.222Z,19.49
2016-09-08T03:40:45.957Z,19.53
2016-09-08T03:41:07.692Z,19.31
2016-09-08T03:41:34.191Z,19.08
2016-09-08T03:41:56.908Z,18.98
2016-09-08T03:42:18.642Z,18.93
2016-09-08T03:42:45.135Z,18.94
2016-09-08T03:43:06.872Z,18.95
2016-09-08T03:43:28.606Z,18.90
2016-09-08T03:43:50.335Z,18.90
2016-09-08T03:44:16.834Z,19.16
2016-09-08T03:44:39.570Z,19.21
2016-09-08T03:45:01.302Z,19.35
2016-09-08T03:45:23.035Z,19.43
2016-09-08T03:45:44.776Z,19.51
2016-09-08T03:46:06.507Z,19.59
2016-09-08T03:46:28.239Z,19.57
2016-09-08T03:46:49.989Z,19.73
2016-09-08T03:47:11.726Z,19.59
2016-09-08T03:47:33.465Z,19.56
2016-09-08T03:47:55.196Z,19.50
2016-09-08T03:48:16.921Z,19.64
2016-09-08T03:48:38.651Z,19.65
2016-09-08T03:49:00.388Z,19.68
2016-09-08T03:49:22.110Z,19.81
2016-09-08T03:49:43.974Z,19.81
2016-09-08T03:50:05.727Z,19.91
2016-09-08T03:50:27.449Z,19.71
2016-09-08T03:50:49.198Z,19.62
2016-09-08T03:51:10.930Z,19.66
2016-09-08T03:51:32.673Z,19.65
2016-09-08T03:51:54.398Z,19.57
2016-09-08T03:52:16.120Z,19.54
2016-09-08T03:52:37.844Z,19.40
2016-09-08T03:52:59.659Z,19.22
2016-09-08T03:53:21.377Z,19.22
2016-09-08T03:53:43.135Z,18.97
2016-09-08T03:54:04.883Z,18.87
2016-09-08T03:54:27.703Z,19.00
2016-09-08T03:54:49.480Z,18.98
2016-09-08T03:55:11.220Z,19.15
2016-09-08T03:55:32.967Z,19.29
2016-09-08T03:55:55.698Z,19.30
2016-09-08T03:56:17.431Z,19.27
2016-09-08T03:56:39.173Z,19.34
2016-09-08T03:57:00.901Z,19.23
2016-09-08T03:57:22.635Z,19.18
2016-09-08T03:57:44.406Z,19.03
2016-09-08T03:58:06.149Z,19.13
2016-09-08T03:58:27.883Z,19.27
2016-09-08T03:58:49.650Z,19.27
2016-09-08T03:59:11.384Z,19.26
2016-09-08T03:59:33.115Z,19.23
2016-09-08T03:59:54.846Z,19.32
2016-09-08T04:00:16.587Z,19.38
2016-09-08T04:00:38.319Z,19.52
2016-09-08T04:01:00.092Z,19.58
2016-09-08T04:01:21.826Z,19.68
2016-09-08T04:01:44.558Z,19.70
2016-09-08T04:02:06.304Z,19.72
2016-09-08T04:02:28.056Z,19.77
2016-09-08T04:02:49.791Z,19.86
2016-09-08T04:03:11.502Z,19.75
2016-09-08T04:03:33.240Z,19.69
2016-09-08T04:03:55.003Z,19.69
2016-09-08T04:04:16.725Z,19.56
2016-09-08T04:04:38.519Z,19.46
2016-09-08T04:05:00.284Z,19.29
2016-09-08T04:05:22.113Z,19.23
2016-09-08T04:05:43.848Z,19.16
2016-09-08T04:06:10.379Z,19.06
2016-09-08T04:06:32.102Z,19.14
2016-09-08T04:06:53.842Z,19.28
2016-09-08T04:07:15.707Z,19.38
2016-09-08T04:07:37.455Z,19.56
2016-09-08T04:07:59.176Z,19.72
2016-09-08T04:08:20.918Z,19.73
2016-09-08T04:08:42.645Z,19.79
2016-09-08T04:09:04.379Z,19.85
2016-09-08T04:09:26.120Z,19.86
2016-09-08T04:09:47.849Z,19.88
2016-09-08T04:10:09.589Z,19.89
2016-09-08T04:10:31.330Z,19.75
2016-09-08T04:10:53.058Z,19.61
2016-09-08T04:11:14.815Z,19.52
2016-09-08T04:11:36.546Z,19.40
2016-09-08T04:11:58.281Z,19.39
2016-09-08T04:12:20.008Z,19.48
2016-09-08T04:12:41.732Z,19.62
2016-09-08T04:13:03.471Z,19.63
2016-09-08T04:13:25.199Z,19.70
2016-09-08T04:13:46.927Z,19.57
2016-09-08T04:14:08.652Z,19.62
2016-09-08T04:14:30.373Z,19.74
2016-09-08T04:14:52.120Z,19.50
2016-09-08T04:15:13.851Z,19.35
2016-09-08T04:15:35.637Z,19.31
2016-09-08T04:15:57.385Z,19.30
2016-09-08T04:16:19.093Z,19.28
2016-09-08T04:16:40.817Z,19.32
2016-09-08T04:17:02.559Z,19.53
2016-09-08T04:17:24.274Z,19.65
2016-09-08T04:17:46.021Z,19.74
2016-09-08T04:18:07.752Z,19.81
2016-09-08T04:18:29.483Z,19.86
2016-09-08T04:18:51.214Z,19.58
2016-09-08T04:19:12.942Z,19.34
2016-09-08T04:19:34.683Z,19.18
2016-09-08T04:19:56.417Z,19.24
2016-09-08T04:20:18.149Z,19.24
2016-09-08T04:20:39.881Z,19.41
2016-09-08T04:21:01.615Z,19.31
2016-09-08T04:21:23.346Z,19.16
2016-09-08T04:21:45.090Z,19.05
2016-09-08T04:22:06.819Z,19.13
2016-09-08T04:22:28.591Z,19.17
2016-09-08T04:22:50.332Z,19.30
2016-09-08T04:23:12.062Z,19.33
2016-09-08T04:23:33.790Z,19.37
2016-09-08T04:23:55.532Z,19.40
2016-09-08T04:24:17.259Z,19.35
2016-09-08T04:24:38.985Z,19.22
2016-09-08T04:25:00.711Z,19.24
2016-09-08T04:25:22.430Z,19.38
2016-09-08T04:25:44.156Z,19.43
2016-09-08T04:26:05.894Z,19.31
2016-09-08T04:26:27.637Z,19.19
2016-09-08T04:26:49.365Z,19.08
2016-09-08T04:27:11.118Z,19.03
2016-09-08T04:27:32.847Z,18.95
2016-09-08T04:27:54.575Z,18.98
2016-09-08T04:28:16.306Z,19.00
2016-09-08T04:28:38.034Z,19.12
2016-09-08T04:28:59.771Z,19.12
2016-09-08T04:29:21.490Z,19.19
2016-09-08T04:29:43.217Z,19.24
2016-09-08T04:30:04.950Z,19.38
2016-09-08T04:30:26.696Z,19.43
2016-09-08T04:31:14.921Z,19.33
2016-09-08T04:31:36.702Z,19.40
2016-09-08T04:31:58.440Z,19.55
2016-09-08T04:32:20.165Z,19.61
2016-09-08T04:32:41.902Z,19.63
2016-09-08T04:33:03.631Z,19.64
2016-09-08T04:33:25.365Z,19.66
2016-09-08T04:33:48.091Z,19.50
2016-09-08T04:34:09.886Z,19.30
2016-09-08T04:34:31.615Z,19.46
2016-09-08T04:34:53.333Z,19.52
2016-09-08T04:35:15.068Z,19.45
2016-09-08T04:36:03.317Z,19.43
2016-09-08T04:36:25.052Z,19.47
2016-09-08T04:36:46.783Z,19.56
2016-09-08T04:37:09.513Z,19.51
2016-09-08T04:37:31.247Z,19.50
2016-09-08T04:37:52.977Z,19.37
2016-09-08T04:38:15.714Z,19.28
2016-09-08T04:38:37.465Z,19.10
2016-09-08T04:39:30.450Z,18.82
2016-09-08T04:39:52.174Z,18.87
2016-09-08T04:40:18.693Z,18.88
2016-09-08T04:40:40.421Z,18.87
2016-09-08T04:41:02.175Z,18.97
2016-09-08T04:41:23.913Z,19.12
2016-09-08T04:41:45.644Z,19.13
2016-09-08T04:42:07.376Z,19.29
2016-09-08T04:42:29.105Z,19.45
2016-09-08T04:42:50.849Z,19.53
2016-09-08T04:43:12.574Z,19.54
2016-09-08T04:43:34.312Z,19.47
2016-09-08T04:44:00.802Z,19.31
2016-09-08T04:44:27.294Z,19.15
2016-09-08T04:44:53.799Z,19.07
2016-09-08T04:45:15.515Z,18.95
2016-09-08T04:45:37.249Z,18.83
2016-09-08T04:45:58.981Z,18.81
2016-09-08T04:46:20.706Z,18.88
2016-09-08T04:46:42.432Z,18.97
2016-09-08T04:47:05.250Z,19.13
2016-09-08T04:47:26.978Z,19.25
2016-09-08T04:47:48.719Z,19.32
2016-09-08T04:48:10.446Z,19.19
2016-09-08T04:48:32.177Z,19.14
2016-09-08T04:48:54.117Z,19.07
2016-09-08T04:49:15.845Z,18.98
2016-09-08T04:49:37.584Z,18.93
2016-09-08T04:49:59.304Z,18.92
2016-09-08T04:50:21.013Z,18.91
2016-09-08T04:50:42.751Z,18.88
2016-09-08T04:51:06.481Z,18.81
2016-09-08T04:51:28.286Z,18.69
2016-09-08T04:51:50.008Z,18.53
2016-09-08T04:52:11.744Z,18.50
2016-09-08T04:52:33.471Z,18.56
2016-09-08T04:52:55.291Z,18.65
2016-09-08T04:53:17.019Z,18.55
2016-09-08T04:53:38.751Z,18.59
2016-09-08T04:54:00.475Z,18.67
2016-09-08T04:54:22.203Z,18.61
2016-09-08T04:54:43.959Z,18.56
2016-09-08T04:55:05.710Z,18.66
2016-09-08T04:55:27.429Z,18.56
2016-09-08T04:55:49.176Z,18.72
2016-09-08T04:56:10.889Z,18.84
2016-09-08T04:56:32.609Z,18.93
2016-09-08T04:56:54.350Z,18.94
2016-09-08T04:57:16.056Z,18.84